PWSweather.com
Personal Weather Stations
Station Observations
CARNOUSTIE
Pambride, CarnoustieGB DD7 6DY

PambrideCarnoustieGB DD7 6DY

Lat: 56.50889, Lon: -2.7051

Elevation: 105

Station Type: Oregon Scientific WMR200

www.carnoustieweather.co.uk

High Low Average
Temperature 56.8°F13.8°C 36.9°F2.7°C 48.4°F9.1°C
Dew Point 47.0°F8.3°C 26.5°F-3.1°C 38.3°F3.5°C
Winds 16.1 mph 25.9 kmh 1.2 mph 1.9 kmh 8.0 mph SW12.9 kmh SW
Wind Gusts 28.8 mph46.3 kmh 2.3 mph3.7 kmh 11.0 mph17.7 kmh
Humidity 73% 55% 68%
Pressure 30.06 in1017.9 mb 29.65 in1004.1 mb -
Precipitation 0.00 in0.0 mm - -
Hour Temp Dew Point Humidity Winds Wind Gusts Pressure Precip Precip Rate Daily Precip Total
12:00 AM 37.8°F3.2°C 26.7°F-2.9°C 64% 3.5 mph W5.6 kmh W 4.6 mph7.4 kmh 30.00 in1015.9 mb - 0.00 in0.0 mm 0.00 in0.0 mm
12:10 AM 37.6°F3.1°C 26.5°F-3.1°C 64% 3.5 mph W5.6 kmh W 3.5 mph5.6 kmh 30.00 in1015.9 mb - 0.00 in0.0 mm 0.00 in0.0 mm
12:15 AM 37.6°F3.1°C 26.9°F-2.8°C 65% 4.6 mph W7.4 kmh W 5.8 mph9.3 kmh 30.00 in1015.9 mb - 0.00 in0.0 mm 0.00 in0.0 mm
12:20 AM 37.4°F3.0°C 26.7°F-2.9°C 65% 4.6 mph W7.4 kmh W 5.8 mph9.3 kmh 30.00 in1015.9 mb - 0.00 in0.0 mm 0.00 in0.0 mm
12:25 AM 37.6°F3.1°C 27.2°F-2.7°C 66% 4.6 mph W7.4 kmh W 5.8 mph9.3 kmh 30.03 in1016.9 mb - 0.00 in0.0 mm 0.00 in0.0 mm
12:30 AM 37.4°F3.0°C 27.1°F-2.7°C 66% 4.6 mph W7.4 kmh W 5.8 mph9.3 kmh 30.03 in1016.9 mb - 0.00 in0.0 mm 0.00 in0.0 mm
12:35 AM 37.4°F3.0°C 27.1°F-2.7°C 66% 5.8 mph W9.3 kmh W 6.9 mph11.1 kmh 30.03 in1016.9 mb - 0.00 in0.0 mm 0.00 in0.0 mm
12:40 AM 37.4°F3.0°C 27.4°F-2.6°C 67% 4.6 mph W7.4 kmh W 4.6 mph7.4 kmh 30.06 in1017.9 mb - 0.00 in0.0 mm 0.00 in0.0 mm
12:45 AM 37.7°F3.2°C 27.7°F-2.4°C 67% 4.6 mph W7.4 kmh W 5.8 mph9.3 kmh 30.06 in1017.9 mb - 0.00 in0.0 mm 0.00 in0.0 mm
12:50 AM 38.1°F3.4°C 28.5°F-1.9°C 68% 5.8 mph W9.3 kmh W 6.9 mph11.1 kmh 30.06 in1017.9 mb - 0.00 in0.0 mm 0.00 in0.0 mm
12:55 AM 38.3°F3.5°C 28.7°F-1.8°C 68% 5.8 mph WSW9.3 kmh WSW 5.8 mph9.3 kmh 30.03 in1016.9 mb - 0.00 in0.0 mm 0.00 in0.0 mm
01:00 AM 38.1°F3.4°C 28.5°F-1.9°C 68% 5.8 mph W9.3 kmh W 5.8 mph9.3 kmh 30.03 in1016.9 mb - 0.00 in0.0 mm 0.00 in0.0 mm
01:10 AM 37.6°F3.1°C 27.6°F-2.4°C 67% 3.5 mph W5.6 kmh W 4.6 mph7.4 kmh 30.03 in1016.9 mb - 0.00 in0.0 mm 0.00 in0.0 mm
01:15 AM 37.3°F2.9°C 27.3°F-2.6°C 67% 3.5 mph W5.6 kmh W 3.5 mph5.6 kmh 30.03 in1016.9 mb - 0.00 in0.0 mm 0.00 in0.0 mm
01:20 AM 37.0°F2.8°C 27.1°F-2.7°C 67% 3.5 mph W5.6 kmh W 4.6 mph7.4 kmh 30.03 in1016.9 mb - 0.00 in0.0 mm 0.00 in0.0 mm
01:25 AM 37.0°F2.8°C 27.5°F-2.5°C 68% 3.5 mph W5.6 kmh W 4.6 mph7.4 kmh 30.03 in1016.9 mb - 0.00 in0.0 mm 0.00 in0.0 mm
01:30 AM 37.0°F2.8°C 27.5°F-2.5°C 68% 3.5 mph W5.6 kmh W 4.6 mph7.4 kmh 30.03 in1016.9 mb - 0.00 in0.0 mm 0.00 in0.0 mm
01:35 AM 37.0°F2.8°C 27.5°F-2.5°C 68% 3.5 mph W5.6 kmh W 3.5 mph5.6 kmh 30.03 in1016.9 mb - 0.00 in0.0 mm 0.00 in0.0 mm
01:40 AM 37.0°F2.8°C 27.5°F-2.5°C 68% 3.5 mph W5.6 kmh W 3.5 mph5.6 kmh 30.03 in1016.9 mb - 0.00 in0.0 mm 0.00 in0.0 mm
01:45 AM 37.0°F2.8°C 27.5°F-2.5°C 68% 3.5 mph W5.6 kmh W 3.5 mph5.6 kmh 30.03 in1016.9 mb - 0.00 in0.0 mm 0.00 in0.0 mm
01:50 AM 36.9°F2.7°C 27.3°F-2.6°C 68% 3.5 mph W5.6 kmh W 4.6 mph7.4 kmh 30.03 in1016.9 mb - 0.00 in0.0 mm 0.00 in0.0 mm
01:55 AM 36.9°F2.7°C 27.3°F-2.6°C 68% 4.6 mph W7.4 kmh W 4.6 mph7.4 kmh 30.03 in1016.9 mb - 0.00 in0.0 mm 0.00 in0.0 mm
02:00 AM 36.9°F2.7°C 27.3°F-2.6°C 68% 3.5 mph W5.6 kmh W 4.6 mph7.4 kmh 30.03 in1016.9 mb - 0.00 in0.0 mm 0.00 in0.0 mm
02:10 AM 37.2°F2.9°C 28.0°F-2.2°C 69% 3.5 mph WSW5.6 kmh WSW 3.5 mph5.6 kmh 30.03 in1016.9 mb - 0.00 in0.0 mm 0.00 in0.0 mm
02:15 AM 37.2°F2.9°C 28.0°F-2.2°C 69% 4.6 mph WSW7.4 kmh WSW 4.6 mph7.4 kmh 30.03 in1016.9 mb - 0.00 in0.0 mm 0.00 in0.0 mm
02:20 AM 37.6°F3.1°C 28.3°F-2.1°C 69% 3.5 mph W5.6 kmh W 4.6 mph7.4 kmh 30.03 in1016.9 mb - 0.00 in0.0 mm 0.00 in0.0 mm
02:25 AM 37.4°F3.0°C 28.2°F-2.1°C 69% 3.5 mph WSW5.6 kmh WSW 4.6 mph7.4 kmh 30.00 in1015.9 mb - 0.00 in0.0 mm 0.00 in0.0 mm
02:30 AM 37.6°F3.1°C 28.3°F-2.1°C 69% 4.6 mph W7.4 kmh W 5.8 mph9.3 kmh 30.00 in1015.9 mb - 0.00 in0.0 mm 0.00 in0.0 mm
02:35 AM 37.9°F3.3°C 29.0°F-1.7°C 70% 4.6 mph W7.4 kmh W 5.8 mph9.3 kmh 30.00 in1015.9 mb - 0.00 in0.0 mm 0.00 in0.0 mm
02:40 AM 38.1°F3.4°C 29.2°F-1.6°C 70% 3.5 mph W5.6 kmh W 4.6 mph7.4 kmh 30.03 in1016.9 mb - 0.00 in0.0 mm 0.00 in0.0 mm
02:45 AM 38.1°F3.4°C 29.2°F-1.6°C 70% 4.6 mph W7.4 kmh W 5.8 mph9.3 kmh 30.03 in1016.9 mb - 0.00 in0.0 mm 0.00 in0.0 mm
02:50 AM 38.3°F3.5°C 29.4°F-1.4°C 70% 4.6 mph W7.4 kmh W 5.8 mph9.3 kmh 30.03 in1016.9 mb - 0.00 in0.0 mm 0.00 in0.0 mm
02:55 AM 38.5°F3.6°C 29.5°F-1.4°C 70% 3.5 mph W5.6 kmh W 4.6 mph7.4 kmh 30.03 in1016.9 mb - 0.00 in0.0 mm 0.00 in0.0 mm
03:00 AM 38.5°F3.6°C 29.5°F-1.4°C 70% 3.5 mph WSW5.6 kmh WSW 4.6 mph7.4 kmh 30.03 in1016.9 mb - 0.00 in0.0 mm 0.00 in0.0 mm
03:10 AM 39.2°F4.0°C 30.2°F-1.0°C 70% 3.5 mph WSW5.6 kmh WSW 5.8 mph9.3 kmh 30.00 in1015.9 mb - 0.00 in0.0 mm 0.00 in0.0 mm
03:15 AM 39.4°F4.1°C 30.8°F-0.7°C 71% 4.6 mph W7.4 kmh W 5.8 mph9.3 kmh 30.00 in1015.9 mb - 0.00 in0.0 mm 0.00 in0.0 mm
03:20 AM 39.7°F4.3°C 31.1°F-0.5°C 71% 4.6 mph W7.4 kmh W 5.8 mph9.3 kmh 30.00 in1015.9 mb - 0.00 in0.0 mm 0.00 in0.0 mm
03:25 AM 39.7°F4.3°C 31.1°F-0.5°C 71% 3.5 mph WSW5.6 kmh WSW 4.6 mph7.4 kmh 30.03 in1016.9 mb - 0.00 in0.0 mm 0.00 in0.0 mm
03:30 AM 39.4°F4.1°C 30.8°F-0.7°C 71% 3.5 mph WSW5.6 kmh WSW 4.6 mph7.4 kmh 30.03 in1016.9 mb - 0.00 in0.0 mm 0.00 in0.0 mm
03:35 AM 39.4°F4.1°C 30.8°F-0.7°C 71% 4.6 mph W7.4 kmh W 5.8 mph9.3 kmh 30.03 in1016.9 mb - 0.00 in0.0 mm 0.00 in0.0 mm
03:40 AM 39.3°F4.1°C 30.6°F-0.8°C 71% 3.5 mph W5.6 kmh W 4.6 mph7.4 kmh 30.00 in1015.9 mb - 0.00 in0.0 mm 0.00 in0.0 mm
03:45 AM 39.2°F4.0°C 30.6°F-0.8°C 71% 3.5 mph WSW5.6 kmh WSW 3.5 mph5.6 kmh 30.00 in1015.9 mb - 0.00 in0.0 mm 0.00 in0.0 mm
03:50 AM 39.2°F4.0°C 30.6°F-0.8°C 71% 3.5 mph WSW5.6 kmh WSW 3.5 mph5.6 kmh 30.00 in1015.9 mb - 0.00 in0.0 mm 0.00 in0.0 mm
03:55 AM 39.2°F4.0°C 30.6°F-0.8°C 71% 3.5 mph WSW5.6 kmh WSW 3.5 mph5.6 kmh 30.00 in1015.9 mb - 0.00 in0.0 mm 0.00 in0.0 mm
04:00 AM 39.4°F4.1°C 30.8°F-0.7°C 71% 4.6 mph WSW7.4 kmh WSW 4.6 mph7.4 kmh 30.00 in1015.9 mb - 0.00 in0.0 mm 0.00 in0.0 mm
04:10 AM 39.7°F4.3°C 31.1°F-0.5°C 71% 3.5 mph WSW5.6 kmh WSW 4.6 mph7.4 kmh 30.00 in1015.9 mb - 0.00 in0.0 mm 0.00 in0.0 mm
04:15 AM 39.9°F4.4°C 31.3°F-0.4°C 71% 3.5 mph WSW5.6 kmh WSW 3.5 mph5.6 kmh 30.00 in1015.9 mb - 0.00 in0.0 mm 0.00 in0.0 mm
04:20 AM 40.1°F4.5°C 31.4°F-0.3°C 71% 3.5 mph W5.6 kmh W 3.5 mph5.6 kmh 30.00 in1015.9 mb - 0.00 in0.0 mm 0.00 in0.0 mm
04:25 AM 40.1°F4.5°C 31.4°F-0.3°C 71% 3.5 mph WSW5.6 kmh WSW 3.5 mph5.6 kmh 29.97 in1014.9 mb - 0.00 in0.0 mm 0.00 in0.0 mm
04:30 AM 40.3°F4.6°C 31.6°F-0.2°C 71% 3.5 mph W5.6 kmh W 3.5 mph5.6 kmh 29.97 in1014.9 mb - 0.00 in0.0 mm 0.00 in0.0 mm
04:35 AM 40.5°F4.7°C 31.8°F-0.1°C 71% 2.3 mph SW3.7 kmh SW 4.6 mph7.4 kmh 29.97 in1014.9 mb - 0.00 in0.0 mm 0.00 in0.0 mm
04:40 AM 40.5°F4.7°C 31.8°F-0.1°C 71% 3.5 mph WSW5.6 kmh WSW 3.5 mph5.6 kmh 29.97 in1014.9 mb - 0.00 in0.0 mm 0.00 in0.0 mm
04:45 AM 40.5°F4.7°C 31.8°F-0.1°C 71% 2.3 mph WSW3.7 kmh WSW 3.5 mph5.6 kmh 29.97 in1014.9 mb - 0.00 in0.0 mm 0.00 in0.0 mm
04:50 AM 40.6°F4.8°C 32.3°F0.2°C 72% 2.3 mph WSW3.7 kmh WSW 3.5 mph5.6 kmh 29.97 in1014.9 mb - 0.00 in0.0 mm 0.00 in0.0 mm
04:55 AM 40.6°F4.8°C 32.3°F0.2°C 72% 2.3 mph WSW3.7 kmh WSW 2.3 mph3.7 kmh 29.97 in1014.9 mb - 0.00 in0.0 mm 0.00 in0.0 mm
05:00 AM 40.6°F4.8°C 32.3°F0.2°C 72% 1.2 mph S1.9 kmh S 2.3 mph3.7 kmh 29.97 in1014.9 mb - 0.00 in0.0 mm 0.00 in0.0 mm
05:10 AM 40.6°F4.8°C 32.3°F0.2°C 72% 2.3 mph SSW3.7 kmh SSW 3.5 mph5.6 kmh 29.97 in1014.9 mb - 0.00 in0.0 mm 0.00 in0.0 mm
05:15 AM 40.6°F4.8°C 32.3°F0.2°C 72% 2.3 mph SSW3.7 kmh SSW 3.5 mph5.6 kmh 29.97 in1014.9 mb - 0.00 in0.0 mm 0.00 in0.0 mm
05:20 AM 40.8°F4.9°C 32.4°F0.2°C 72% 1.2 mph SSW1.9 kmh SSW 3.5 mph5.6 kmh 29.97 in1014.9 mb - 0.00 in0.0 mm 0.00 in0.0 mm
05:25 AM 40.8°F4.9°C 32.5°F0.3°C 72% 1.2 mph WSW1.9 kmh WSW 2.3 mph3.7 kmh 29.97 in1014.9 mb - 0.00 in0.0 mm 0.00 in0.0 mm
05:30 AM 41.0°F5.0°C 32.3°F0.2°C 71% 1.2 mph SW1.9 kmh SW 2.3 mph3.7 kmh 29.97 in1014.9 mb - 0.00 in0.0 mm 0.00 in0.0 mm
05:35 AM 41.0°F5.0°C 32.3°F0.2°C 71% 2.3 mph WSW3.7 kmh WSW 4.6 mph7.4 kmh 29.97 in1014.9 mb - 0.00 in0.0 mm 0.00 in0.0 mm
05:40 AM 41.2°F5.1°C 32.8°F0.4°C 72% 2.3 mph SW3.7 kmh SW 3.5 mph5.6 kmh 29.97 in1014.9 mb - 0.00 in0.0 mm 0.00 in0.0 mm
05:45 AM 41.4°F5.2°C 33.0°F0.6°C 72% 2.3 mph SSW3.7 kmh SSW 3.5 mph5.6 kmh 29.97 in1014.9 mb - 0.00 in0.0 mm 0.00 in0.0 mm
05:50 AM 41.7°F5.4°C 33.3°F0.7°C 72% 3.5 mph SW5.6 kmh SW 4.6 mph7.4 kmh 29.97 in1014.9 mb - 0.00 in0.0 mm 0.00 in0.0 mm
05:55 AM 42.1°F5.6°C 34.0°F1.1°C 73% 4.6 mph WSW7.4 kmh WSW 4.6 mph7.4 kmh 29.97 in1014.9 mb - 0.00 in0.0 mm 0.00 in0.0 mm
06:00 AM 42.3°F5.7°C 34.2°F1.2°C 73% 4.6 mph W7.4 kmh W 4.6 mph7.4 kmh 29.97 in1014.9 mb - 0.00 in0.0 mm 0.00 in0.0 mm
06:10 AM 42.4°F5.8°C 34.4°F1.3°C 73% 3.5 mph W5.6 kmh W 4.6 mph7.4 kmh 29.94 in1013.9 mb - 0.00 in0.0 mm 0.00 in0.0 mm
06:15 AM 42.5°F5.8°C 34.4°F1.3°C 73% 4.6 mph S7.4 kmh S 6.9 mph11.1 kmh 29.94 in1013.9 mb - 0.00 in0.0 mm 0.00 in0.0 mm
06:20 AM 42.8°F6.0°C 34.7°F1.5°C 73% 4.6 mph WSW7.4 kmh WSW 5.8 mph9.3 kmh 29.94 in1013.9 mb - 0.00 in0.0 mm 0.00 in0.0 mm
06:25 AM 42.8°F6.0°C 34.7°F1.5°C 73% 4.6 mph WSW7.4 kmh WSW 6.9 mph11.1 kmh 29.97 in1014.9 mb - 0.00 in0.0 mm 0.00 in0.0 mm
06:30 AM 43.0°F6.1°C 34.9°F1.6°C 73% 4.6 mph WSW7.4 kmh WSW 8.1 mph13.0 kmh 29.97 in1014.9 mb - 0.00 in0.0 mm 0.00 in0.0 mm
06:35 AM 43.0°F6.1°C 34.9°F1.6°C 73% 4.6 mph WSW7.4 kmh WSW 6.9 mph11.1 kmh 29.97 in1014.9 mb - 0.00 in0.0 mm 0.00 in0.0 mm
06:40 AM 43.2°F6.2°C 35.1°F1.7°C 73% 4.6 mph WSW7.4 kmh WSW 6.9 mph11.1 kmh 29.97 in1014.9 mb - 0.00 in0.0 mm 0.00 in0.0 mm
06:45 AM 43.2°F6.2°C 35.1°F1.7°C 73% 5.8 mph WSW9.3 kmh WSW 5.8 mph9.3 kmh 29.97 in1014.9 mb - 0.00 in0.0 mm 0.00 in0.0 mm
06:50 AM 43.2°F6.2°C 35.1°F1.7°C 73% 4.6 mph WSW7.4 kmh WSW 4.6 mph7.4 kmh 29.97 in1014.9 mb - 0.00 in0.0 mm 0.00 in0.0 mm
06:55 AM 43.2°F6.2°C 35.1°F1.7°C 73% 5.8 mph WSW9.3 kmh WSW 8.1 mph13.0 kmh 29.97 in1014.9 mb - 0.00 in0.0 mm 0.00 in0.0 mm
07:00 AM 43.3°F6.3°C 35.3°F1.8°C 73% 5.8 mph WSW9.3 kmh WSW 9.2 mph14.8 kmh 29.97 in1014.9 mb - 0.00 in0.0 mm 0.00 in0.0 mm
07:10 AM 43.9°F6.6°C 35.8°F2.1°C 73% 5.8 mph SW9.3 kmh SW 10.4 mph16.7 kmh 29.97 in1014.9 mb - 0.00 in0.0 mm 0.00 in0.0 mm
07:15 AM 44.2°F6.8°C 36.1°F2.3°C 73% 4.6 mph WSW7.4 kmh WSW 8.1 mph13.0 kmh 29.97 in1014.9 mb - 0.00 in0.0 mm 0.00 in0.0 mm
07:20 AM 44.4°F6.9°C 36.0°F2.2°C 72% 5.8 mph WSW9.3 kmh WSW 8.1 mph13.0 kmh 29.97 in1014.9 mb - 0.00 in0.0 mm 0.00 in0.0 mm
07:25 AM 44.4°F6.9°C 36.0°F2.2°C 72% 5.8 mph WSW9.3 kmh WSW 11.5 mph18.5 kmh 29.97 in1014.9 mb - 0.00 in0.0 mm 0.00 in0.0 mm
07:30 AM 44.6°F7.0°C 35.8°F2.1°C 71% 4.6 mph SSW7.4 kmh SSW 8.1 mph13.0 kmh 29.97 in1014.9 mb - 0.00 in0.0 mm 0.00 in0.0 mm
07:35 AM 44.6°F7.0°C 35.8°F2.1°C 71% 4.6 mph SW7.4 kmh SW 9.2 mph14.8 kmh 29.97 in1014.9 mb - 0.00 in0.0 mm 0.00 in0.0 mm
07:40 AM 44.8°F7.1°C 35.9°F2.2°C 71% 4.6 mph WSW7.4 kmh WSW 8.1 mph13.0 kmh 29.97 in1014.9 mb - 0.00 in0.0 mm 0.00 in0.0 mm
07:45 AM 45.0°F7.2°C 35.8°F2.1°C 70% 5.8 mph SW9.3 kmh SW 6.9 mph11.1 kmh 29.97 in1014.9 mb - 0.00 in0.0 mm 0.00 in0.0 mm
07:50 AM 45.1°F7.3°C 35.9°F2.2°C 70% 6.9 mph WSW11.1 kmh WSW 9.2 mph14.8 kmh 29.97 in1014.9 mb - 0.00 in0.0 mm 0.00 in0.0 mm
07:55 AM 45.2°F7.3°C 36.0°F2.2°C 70% 5.8 mph SSW9.3 kmh SSW 9.2 mph14.8 kmh 29.94 in1013.9 mb - 0.00 in0.0 mm 0.00 in0.0 mm
08:00 AM 45.3°F7.4°C 35.7°F2.1°C 69% 5.8 mph WSW9.3 kmh WSW 10.4 mph16.7 kmh 29.94 in1013.9 mb - 0.00 in0.0 mm 0.00 in0.0 mm
08:10 AM 45.5°F7.5°C 35.9°F2.2°C 69% 5.8 mph SW9.3 kmh SW 8.1 mph13.0 kmh 29.94 in1013.9 mb - 0.00 in0.0 mm 0.00 in0.0 mm
08:15 AM 45.5°F7.5°C 35.9°F2.2°C 69% 5.8 mph WSW9.3 kmh WSW 8.1 mph13.0 kmh 29.94 in1013.9 mb - 0.00 in0.0 mm 0.00 in0.0 mm
08:20 AM 45.5°F7.5°C 35.9°F2.2°C 69% 8.1 mph WSW13.0 kmh WSW 10.4 mph16.7 kmh 29.94 in1013.9 mb - 0.00 in0.0 mm 0.00 in0.0 mm
08:25 AM 45.5°F7.5°C 35.9°F2.2°C 69% 6.9 mph SW11.1 kmh SW 10.4 mph16.7 kmh 29.94 in1013.9 mb - 0.00 in0.0 mm 0.00 in0.0 mm
08:30 AM 45.7°F7.6°C 36.1°F2.3°C 69% 4.6 mph SW7.4 kmh SW 10.4 mph16.7 kmh 29.94 in1013.9 mb - 0.00 in0.0 mm 0.00 in0.0 mm
08:35 AM 45.7°F7.6°C 36.1°F2.3°C 69% 6.9 mph WSW11.1 kmh WSW 13.8 mph22.2 kmh 29.94 in1013.9 mb - 0.00 in0.0 mm 0.00 in0.0 mm
08:40 AM 45.9°F7.7°C 36.3°F2.4°C 69% 8.1 mph WSW13.0 kmh WSW 11.5 mph18.5 kmh 29.94 in1013.9 mb - 0.00 in0.0 mm 0.00 in0.0 mm
08:45 AM 46.0°F7.8°C 36.1°F2.3°C 68% 8.1 mph SW13.0 kmh SW 13.8 mph22.2 kmh 29.94 in1013.9 mb - 0.00 in0.0 mm 0.00 in0.0 mm
08:50 AM 46.2°F7.9°C 36.2°F2.3°C 68% 6.9 mph WSW11.1 kmh WSW 12.7 mph20.4 kmh 29.94 in1013.9 mb - 0.00 in0.0 mm 0.00 in0.0 mm
08:55 AM 46.4°F8.0°C 36.0°F2.2°C 67% 5.8 mph SW9.3 kmh SW 10.4 mph16.7 kmh 29.94 in1013.9 mb - 0.00 in0.0 mm 0.00 in0.0 mm
09:00 AM 46.6°F8.1°C 35.8°F2.1°C 66% 8.1 mph SW13.0 kmh SW 11.5 mph18.5 kmh 29.94 in1013.9 mb - 0.00 in0.0 mm 0.00 in0.0 mm
09:10 AM 46.8°F8.2°C 35.2°F1.8°C 64% 4.6 mph SW7.4 kmh SW 8.1 mph13.0 kmh 29.94 in1013.9 mb - 0.00 in0.0 mm 0.00 in0.0 mm
09:15 AM 46.8°F8.2°C 35.2°F1.8°C 64% 8.1 mph SSW13.0 kmh SSW 11.5 mph18.5 kmh 29.94 in1013.9 mb - 0.00 in0.0 mm 0.00 in0.0 mm
09:20 AM 46.8°F8.2°C 35.2°F1.8°C 64% 6.9 mph SW11.1 kmh SW 9.2 mph14.8 kmh 29.94 in1013.9 mb - 0.00 in0.0 mm 0.00 in0.0 mm
09:25 AM 46.8°F8.2°C 35.2°F1.8°C 64% 9.2 mph SW14.8 kmh SW 11.5 mph18.5 kmh 29.91 in1012.9 mb - 0.00 in0.0 mm 0.00 in0.0 mm
09:30 AM 46.8°F8.2°C 35.6°F2.0°C 65% 4.6 mph WSW7.4 kmh WSW 8.1 mph13.0 kmh 29.91 in1012.9 mb - 0.00 in0.0 mm 0.00 in0.0 mm
09:35 AM 46.8°F8.2°C 35.6°F2.0°C 65% 5.8 mph SW9.3 kmh SW 10.4 mph16.7 kmh 29.91 in1012.9 mb - 0.00 in0.0 mm 0.00 in0.0 mm
09:40 AM 46.6°F8.1°C 35.5°F1.9°C 65% 6.9 mph WSW11.1 kmh WSW 6.9 mph11.1 kmh 29.91 in1012.9 mb - 0.00 in0.0 mm 0.00 in0.0 mm
09:45 AM 46.6°F8.1°C 35.4°F1.9°C 65% 9.2 mph SW14.8 kmh SW 11.5 mph18.5 kmh 29.91 in1012.9 mb - 0.00 in0.0 mm 0.00 in0.0 mm
09:50 AM 46.6°F8.1°C 35.4°F1.9°C 65% 5.8 mph SSW9.3 kmh SSW 13.8 mph22.2 kmh 29.91 in1012.9 mb - 0.00 in0.0 mm 0.00 in0.0 mm
09:55 AM 46.8°F8.2°C 35.6°F2.0°C 65% 6.9 mph SW11.1 kmh SW 11.5 mph18.5 kmh 29.91 in1012.9 mb - 0.00 in0.0 mm 0.00 in0.0 mm
10:00 AM 46.8°F8.2°C 35.6°F2.0°C 65% 5.8 mph SW9.3 kmh SW 11.5 mph18.5 kmh 29.91 in1012.9 mb - 0.00 in0.0 mm 0.00 in0.0 mm
10:10 AM 47.1°F8.4°C 36.0°F2.2°C 65% 5.8 mph WSW9.3 kmh WSW 9.2 mph14.8 kmh 29.91 in1012.9 mb - 0.00 in0.0 mm 0.00 in0.0 mm
10:15 AM 47.3°F8.5°C 36.1°F2.3°C 65% 5.8 mph SSW9.3 kmh SSW 6.9 mph11.1 kmh 29.91 in1012.9 mb - 0.00 in0.0 mm 0.00 in0.0 mm
10:20 AM 47.6°F8.7°C 36.4°F2.4°C 65% 4.6 mph SSW7.4 kmh SSW 11.5 mph18.5 kmh 29.91 in1012.9 mb - 0.00 in0.0 mm 0.00 in0.0 mm
10:25 AM 47.9°F8.8°C 36.3°F2.4°C 64% 4.6 mph SSW7.4 kmh SSW 5.8 mph9.3 kmh 29.91 in1012.9 mb - 0.00 in0.0 mm 0.00 in0.0 mm
10:30 AM 48.2°F9.0°C 36.2°F2.3°C 63% 6.9 mph SW11.1 kmh SW 11.5 mph18.5 kmh 29.91 in1012.9 mb - 0.00 in0.0 mm 0.00 in0.0 mm
10:35 AM 48.6°F9.2°C 36.5°F2.5°C 63% 5.8 mph S9.3 kmh S 10.4 mph16.7 kmh 29.91 in1012.9 mb - 0.00 in0.0 mm 0.00 in0.0 mm
10:40 AM 48.7°F9.3°C 36.3°F2.4°C 62% 8.1 mph WSW13.0 kmh WSW 11.5 mph18.5 kmh 29.94 in1013.9 mb - 0.00 in0.0 mm 0.00 in0.0 mm
10:45 AM 48.7°F9.3°C 35.9°F2.2°C 61% 6.9 mph S11.1 kmh S 11.5 mph18.5 kmh 29.94 in1013.9 mb - 0.00 in0.0 mm 0.00 in0.0 mm
10:50 AM 48.8°F9.3°C 35.6°F2.0°C 60% 5.8 mph SSW9.3 kmh SSW 12.7 mph20.4 kmh 29.94 in1013.9 mb - 0.00 in0.0 mm 0.00 in0.0 mm
10:55 AM 48.9°F9.4°C 35.6°F2.0°C 60% 8.1 mph SW13.0 kmh SW 13.8 mph22.2 kmh 29.91 in1012.9 mb - 0.00 in0.0 mm 0.00 in0.0 mm
11:00 AM 49.1°F9.5°C 35.8°F2.1°C 60% 3.5 mph SSW5.6 kmh SSW 6.9 mph11.1 kmh 29.91 in1012.9 mb - 0.00 in0.0 mm 0.00 in0.0 mm
11:10 AM 49.1°F9.5°C 35.8°F2.1°C 60% 8.1 mph S13.0 kmh S 9.2 mph14.8 kmh 29.88 in1011.9 mb - 0.00 in0.0 mm 0.00 in0.0 mm
11:15 AM 49.3°F9.6°C 36.0°F2.2°C 60% 10.4 mph SW16.7 kmh SW 16.1 mph25.9 kmh 29.88 in1011.9 mb - 0.00 in0.0 mm 0.00 in0.0 mm
11:20 AM 49.5°F9.7°C 36.1°F2.3°C 60% 9.2 mph SW14.8 kmh SW 12.7 mph20.4 kmh 29.88 in1011.9 mb - 0.00 in0.0 mm 0.00 in0.0 mm
11:25 AM 49.6°F9.8°C 35.9°F2.2°C 59% 5.8 mph SW9.3 kmh SW 9.2 mph14.8 kmh 29.88 in1011.9 mb - 0.00 in0.0 mm 0.00 in0.0 mm
11:30 AM 49.8°F9.9°C 36.1°F2.3°C 59% 10.4 mph SW16.7 kmh SW 13.8 mph22.2 kmh 29.88 in1011.9 mb - 0.00 in0.0 mm 0.00 in0.0 mm
11:35 AM 50.0°F10.0°C 36.2°F2.3°C 59% 9.2 mph SW14.8 kmh SW 13.8 mph22.2 kmh 29.88 in1011.9 mb - 0.00 in0.0 mm 0.00 in0.0 mm
11:40 AM 50.4°F10.2°C 36.6°F2.6°C 59% 8.1 mph SSW13.0 kmh SSW 16.1 mph25.9 kmh 29.86 in1011.2 mb - 0.00 in0.0 mm 0.00 in0.0 mm
11:45 AM 50.5°F10.3°C 36.3°F2.4°C 58% 9.2 mph WSW14.8 kmh WSW 16.1 mph25.9 kmh 29.86 in1011.2 mb - 0.00 in0.0 mm 0.00 in0.0 mm
11:50 AM 50.7°F10.4°C 36.5°F2.5°C 58% 10.4 mph WSW16.7 kmh WSW 17.3 mph27.8 kmh 29.86 in1011.2 mb - 0.00 in0.0 mm 0.00 in0.0 mm
11:55 AM 50.9°F10.5°C 36.6°F2.6°C 58% 9.2 mph WSW14.8 kmh WSW 15.0 mph24.1 kmh 29.86 in1011.2 mb - 0.00 in0.0 mm 0.00 in0.0 mm
12:00 PM 51.1°F10.6°C 36.8°F2.7°C 58% 12.7 mph SW20.4 kmh SW 16.1 mph25.9 kmh 29.86 in1011.2 mb - 0.00 in0.0 mm 0.00 in0.0 mm
12:10 PM 51.5°F10.8°C 37.2°F2.9°C 58% 8.1 mph WSW13.0 kmh WSW 12.7 mph20.4 kmh 29.86 in1011.2 mb - 0.00 in0.0 mm 0.00 in0.0 mm
12:15 PM 51.6°F10.9°C 37.3°F2.9°C 58% 11.5 mph SW18.5 kmh SW 15.0 mph24.1 kmh 29.86 in1011.2 mb - 0.00 in0.0 mm 0.00 in0.0 mm
12:20 PM 52.0°F11.1°C 37.7°F3.2°C 58% 11.5 mph SW18.5 kmh SW 17.3 mph27.8 kmh 29.86 in1011.2 mb - 0.00 in0.0 mm 0.00 in0.0 mm
12:25 PM 52.3°F11.3°C 37.5°F3.1°C 57% 9.2 mph SW14.8 kmh SW 13.8 mph22.2 kmh 29.86 in1011.2 mb - 0.00 in0.0 mm 0.00 in0.0 mm
12:30 PM 52.7°F11.5°C 37.8°F3.2°C 57% 8.1 mph SW13.0 kmh SW 13.8 mph22.2 kmh 29.86 in1011.2 mb - 0.00 in0.0 mm 0.00 in0.0 mm
12:35 PM 53.1°F11.7°C 37.8°F3.2°C 56% 12.7 mph SW20.4 kmh SW 18.4 mph29.6 kmh 29.86 in1011.2 mb - 0.00 in0.0 mm 0.00 in0.0 mm
12:40 PM 53.2°F11.8°C 37.5°F3.1°C 55% 9.2 mph S14.8 kmh S 13.8 mph22.2 kmh 29.82 in1009.8 mb - 0.00 in0.0 mm 0.00 in0.0 mm
12:45 PM 53.2°F11.8°C 37.4°F3.0°C 55% 6.9 mph SSW11.1 kmh SSW 13.8 mph22.2 kmh 29.82 in1009.8 mb - 0.00 in0.0 mm 0.00 in0.0 mm
12:50 PM 53.2°F11.8°C 37.9°F3.3°C 56% 10.4 mph SW16.7 kmh SW 16.1 mph25.9 kmh 29.82 in1009.8 mb - 0.00 in0.0 mm 0.00 in0.0 mm
12:55 PM 53.1°F11.7°C 37.8°F3.2°C 56% 9.2 mph SW14.8 kmh SW 19.6 mph31.5 kmh 29.82 in1009.8 mb - 0.00 in0.0 mm 0.00 in0.0 mm
01:00 PM 53.1°F11.7°C 37.8°F3.2°C 56% 10.4 mph SSW16.7 kmh SSW 20.7 mph33.3 kmh 29.82 in1009.8 mb - 0.00 in0.0 mm 0.00 in0.0 mm
01:10 PM 52.9°F11.6°C 38.5°F3.6°C 58% 11.5 mph SW18.5 kmh SW 16.1 mph25.9 kmh 29.80 in1009.1 mb - 0.00 in0.0 mm 0.00 in0.0 mm
01:15 PM 52.9°F11.6°C 38.9°F3.8°C 59% 12.7 mph WSW20.4 kmh WSW 17.3 mph27.8 kmh 29.80 in1009.1 mb - 0.00 in0.0 mm 0.00 in0.0 mm
01:20 PM 52.7°F11.5°C 38.8°F3.8°C 59% 13.8 mph SW22.2 kmh SW 17.3 mph27.8 kmh 29.80 in1009.1 mb - 0.00 in0.0 mm 0.00 in0.0 mm
01:25 PM 52.7°F11.5°C 39.2°F4.0°C 60% 13.8 mph WSW22.2 kmh WSW 19.6 mph31.5 kmh 29.80 in1009.1 mb - 0.00 in0.0 mm 0.00 in0.0 mm
01:30 PM 52.6°F11.4°C 39.5°F4.2°C 61% 11.5 mph S18.5 kmh S 16.1 mph25.9 kmh 29.80 in1009.1 mb - 0.00 in0.0 mm 0.00 in0.0 mm
01:35 PM 52.3°F11.3°C 39.7°F4.3°C 62% 9.2 mph SW14.8 kmh SW 11.5 mph18.5 kmh 29.80 in1009.1 mb - 0.00 in0.0 mm 0.00 in0.0 mm
01:40 PM 52.3°F11.3°C 40.1°F4.5°C 63% 12.7 mph SW20.4 kmh SW 19.6 mph31.5 kmh 29.80 in1009.1 mb - 0.00 in0.0 mm 0.00 in0.0 mm
01:45 PM 52.2°F11.2°C 40.3°F4.6°C 64% 10.4 mph SSW16.7 kmh SSW 12.7 mph20.4 kmh 29.80 in1009.1 mb - 0.00 in0.0 mm 0.00 in0.0 mm
01:50 PM 52.0°F11.1°C 40.6°F4.8°C 65% 11.5 mph SSW18.5 kmh SSW 16.1 mph25.9 kmh 29.80 in1009.1 mb - 0.00 in0.0 mm 0.00 in0.0 mm
01:55 PM 52.0°F11.1°C 41.0°F5.0°C 66% 10.4 mph SW16.7 kmh SW 13.8 mph22.2 kmh 29.80 in1009.1 mb - 0.00 in0.0 mm 0.00 in0.0 mm
02:00 PM 52.0°F11.1°C 41.0°F5.0°C 66% 10.4 mph SW16.7 kmh SW 16.1 mph25.9 kmh 29.80 in1009.1 mb - 0.00 in0.0 mm 0.00 in0.0 mm
02:10 PM 51.8°F11.0°C 41.2°F5.1°C 67% 11.5 mph SW18.5 kmh SW 13.8 mph22.2 kmh 29.80 in1009.1 mb - 0.00 in0.0 mm 0.00 in0.0 mm
02:15 PM 51.8°F11.0°C 41.2°F5.1°C 67% 6.9 mph SW11.1 kmh SW 10.4 mph16.7 kmh 29.80 in1009.1 mb - 0.00 in0.0 mm 0.00 in0.0 mm
02:20 PM 52.0°F11.1°C 41.4°F5.2°C 67% 5.8 mph SW9.3 kmh SW 11.5 mph18.5 kmh 29.80 in1009.1 mb - 0.00 in0.0 mm 0.00 in0.0 mm
02:25 PM 51.8°F11.0°C 41.6°F5.3°C 68% 8.1 mph SSW13.0 kmh SSW 11.5 mph18.5 kmh 29.80 in1009.1 mb - 0.00 in0.0 mm 0.00 in0.0 mm
02:30 PM 51.6°F10.9°C 41.8°F5.4°C 69% 10.4 mph S16.7 kmh S 16.1 mph25.9 kmh 29.80 in1009.1 mb - 0.00 in0.0 mm 0.00 in0.0 mm
02:35 PM 51.6°F10.9°C 41.8°F5.4°C 69% 9.2 mph SW14.8 kmh SW 11.5 mph18.5 kmh 29.80 in1009.1 mb - 0.00 in0.0 mm 0.00 in0.0 mm
02:40 PM 51.4°F10.8°C 41.6°F5.3°C 69% 12.7 mph SW20.4 kmh SW 17.3 mph27.8 kmh 29.80 in1009.1 mb - 0.00 in0.0 mm 0.00 in0.0 mm
02:45 PM 51.3°F10.7°C 41.8°F5.4°C 70% 10.4 mph SW16.7 kmh SW 16.1 mph25.9 kmh 29.80 in1009.1 mb - 0.00 in0.0 mm 0.00 in0.0 mm
02:50 PM 51.3°F10.7°C 41.8°F5.4°C 70% 9.2 mph SW14.8 kmh SW 13.8 mph22.2 kmh 29.80 in1009.1 mb - 0.00 in0.0 mm 0.00 in0.0 mm
02:55 PM 51.3°F10.7°C 42.2°F5.7°C 71% 8.1 mph S13.0 kmh S 11.5 mph18.5 kmh 29.77 in1008.1 mb - 0.00 in0.0 mm 0.00 in0.0 mm
03:00 PM 51.3°F10.7°C 42.2°F5.7°C 71% 9.2 mph S14.8 kmh S 13.8 mph22.2 kmh 29.77 in1008.1 mb - 0.00 in0.0 mm 0.00 in0.0 mm
03:10 PM 51.3°F10.7°C 42.5°F5.8°C 72% 4.6 mph SSW7.4 kmh SSW 6.9 mph11.1 kmh 29.74 in1007.1 mb - 0.00 in0.0 mm 0.00 in0.0 mm
03:15 PM 51.4°F10.8°C 42.7°F5.9°C 72% 9.2 mph SW14.8 kmh SW 11.5 mph18.5 kmh 29.74 in1007.1 mb - 0.00 in0.0 mm 0.00 in0.0 mm
03:20 PM 51.4°F10.8°C 42.7°F5.9°C 72% 10.4 mph S16.7 kmh S 12.7 mph20.4 kmh 29.74 in1007.1 mb - 0.00 in0.0 mm 0.00 in0.0 mm
03:25 PM 51.4°F10.8°C 42.7°F5.9°C 72% 9.2 mph S14.8 kmh S 11.5 mph18.5 kmh 29.71 in1006.1 mb - 0.00 in0.0 mm 0.00 in0.0 mm
03:30 PM 51.4°F10.8°C 42.7°F5.9°C 72% 10.4 mph SW16.7 kmh SW 11.5 mph18.5 kmh 29.71 in1006.1 mb - 0.00 in0.0 mm 0.00 in0.0 mm
03:35 PM 51.5°F10.8°C 42.8°F6.0°C 72% 8.1 mph SW13.0 kmh SW 16.1 mph25.9 kmh 29.71 in1006.1 mb - 0.00 in0.0 mm 0.00 in0.0 mm
03:40 PM 51.6°F10.9°C 42.9°F6.1°C 72% 6.9 mph SW11.1 kmh SW 16.1 mph25.9 kmh 29.74 in1007.1 mb - 0.00 in0.0 mm 0.00 in0.0 mm
03:45 PM 51.6°F10.9°C 42.9°F6.1°C 72% 9.2 mph SW14.8 kmh SW 12.7 mph20.4 kmh 29.74 in1007.1 mb - 0.00 in0.0 mm 0.00 in0.0 mm
03:50 PM 51.8°F11.0°C 43.1°F6.2°C 72% 10.4 mph SW16.7 kmh SW 18.4 mph29.6 kmh 29.74 in1007.1 mb - 0.00 in0.0 mm 0.00 in0.0 mm
03:55 PM 51.8°F11.0°C 43.1°F6.2°C 72% 8.1 mph SSW13.0 kmh SSW 13.8 mph22.2 kmh 29.74 in1007.1 mb - 0.00 in0.0 mm 0.00 in0.0 mm
04:00 PM 51.8°F11.0°C 43.1°F6.2°C 72% 6.9 mph SW11.1 kmh SW 11.5 mph18.5 kmh 29.74 in1007.1 mb - 0.00 in0.0 mm 0.00 in0.0 mm
04:10 PM 52.0°F11.1°C 43.2°F6.2°C 72% 8.1 mph SW13.0 kmh SW 11.5 mph18.5 kmh 29.71 in1006.1 mb - 0.00 in0.0 mm 0.00 in0.0 mm
04:15 PM 52.0°F11.1°C 43.2°F6.2°C 72% 8.1 mph SW13.0 kmh SW 12.7 mph20.4 kmh 29.71 in1006.1 mb - 0.00 in0.0 mm 0.00 in0.0 mm
04:20 PM 52.2°F11.2°C 43.4°F6.3°C 72% 10.4 mph SW16.7 kmh SW 16.1 mph25.9 kmh 29.71 in1006.1 mb - 0.00 in0.0 mm 0.00 in0.0 mm
04:25 PM 52.2°F11.2°C 43.4°F6.3°C 72% 11.5 mph SSW18.5 kmh SSW 15.0 mph24.1 kmh 29.71 in1006.1 mb - 0.00 in0.0 mm 0.00 in0.0 mm
04:30 PM 52.3°F11.3°C 43.6°F6.4°C 72% 6.9 mph S11.1 kmh S 8.1 mph13.0 kmh 29.71 in1006.1 mb - 0.00 in0.0 mm 0.00 in0.0 mm
04:35 PM 52.5°F11.4°C 43.8°F6.6°C 72% 8.1 mph WSW13.0 kmh WSW 12.7 mph20.4 kmh 29.71 in1006.1 mb - 0.00 in0.0 mm 0.00 in0.0 mm
04:40 PM 52.6°F11.4°C 43.5°F6.4°C 71% 10.4 mph SW16.7 kmh SW 16.1 mph25.9 kmh 29.68 in1005.1 mb - 0.00 in0.0 mm 0.00 in0.0 mm
04:45 PM 52.7°F11.5°C 43.6°F6.4°C 71% 6.9 mph SW11.1 kmh SW 12.7 mph20.4 kmh 29.68 in1005.1 mb - 0.00 in0.0 mm 0.00 in0.0 mm
04:50 PM 52.9°F11.6°C 43.7°F6.5°C 71% 16.1 mph SW25.9 kmh SW 20.7 mph33.3 kmh 29.68 in1005.1 mb - 0.00 in0.0 mm 0.00 in0.0 mm
04:55 PM 53.1°F11.7°C 43.9°F6.6°C 71% 9.2 mph SW14.8 kmh SW 11.5 mph18.5 kmh 29.68 in1005.1 mb - 0.00 in0.0 mm 0.00 in0.0 mm
05:00 PM 53.1°F11.7°C 43.9°F6.6°C 71% 10.4 mph SW16.7 kmh SW 15.0 mph24.1 kmh 29.68 in1005.1 mb - 0.00 in0.0 mm 0.00 in0.0 mm
05:10 PM 53.4°F11.9°C 43.9°F6.6°C 70% 10.4 mph WSW16.7 kmh WSW 11.5 mph18.5 kmh 29.68 in1005.1 mb - 0.00 in0.0 mm 0.00 in0.0 mm
05:15 PM 53.4°F11.9°C 43.9°F6.6°C 70% 10.4 mph SW16.7 kmh SW 15.0 mph24.1 kmh 29.68 in1005.1 mb - 0.00 in0.0 mm 0.00 in0.0 mm
05:20 PM 53.6°F12.0°C 44.0°F6.7°C 70% 10.4 mph WSW16.7 kmh WSW 12.7 mph20.4 kmh 29.68 in1005.1 mb - 0.00 in0.0 mm 0.00 in0.0 mm
05:25 PM 53.6°F12.0°C 44.0°F6.7°C 70% 9.2 mph SW14.8 kmh SW 13.8 mph22.2 kmh 29.68 in1005.1 mb - 0.00 in0.0 mm 0.00 in0.0 mm
05:30 PM 53.8°F12.1°C 44.2°F6.8°C 70% 6.9 mph SW11.1 kmh SW 11.5 mph18.5 kmh 29.68 in1005.1 mb - 0.00 in0.0 mm 0.00 in0.0 mm
05:35 PM 53.8°F12.1°C 44.2°F6.8°C 70% 8.1 mph SW13.0 kmh SW 9.2 mph14.8 kmh 29.68 in1005.1 mb - 0.00 in0.0 mm 0.00 in0.0 mm
05:40 PM 53.9°F12.2°C 44.3°F6.8°C 70% 11.5 mph NW18.5 kmh NW 16.1 mph25.9 kmh 29.68 in1005.1 mb - 0.00 in0.0 mm 0.00 in0.0 mm
05:45 PM 54.0°F12.2°C 44.4°F6.9°C 70% 12.7 mph WSW20.4 kmh WSW 16.1 mph25.9 kmh 29.68 in1005.1 mb - 0.00 in0.0 mm 0.00 in0.0 mm
05:50 PM 54.1°F12.3°C 44.6°F7.0°C 70% 9.2 mph SW14.8 kmh SW 16.1 mph25.9 kmh 29.68 in1005.1 mb - 0.00 in0.0 mm 0.00 in0.0 mm
05:55 PM 54.1°F12.3°C 44.6°F7.0°C 70% 13.8 mph WSW22.2 kmh WSW 16.1 mph25.9 kmh 29.68 in1005.1 mb - 0.00 in0.0 mm 0.00 in0.0 mm
06:00 PM 54.3°F12.4°C 44.7°F7.1°C 70% 15.0 mph WSW24.1 kmh WSW 25.3 mph40.7 kmh 29.68 in1005.1 mb - 0.00 in0.0 mm 0.00 in0.0 mm
06:10 PM 54.5°F12.5°C 44.9°F7.2°C 70% 12.7 mph SW20.4 kmh SW 13.8 mph22.2 kmh 29.68 in1005.1 mb - 0.00 in0.0 mm 0.00 in0.0 mm
06:15 PM 54.5°F12.5°C 44.9°F7.2°C 70% 9.2 mph WSW14.8 kmh WSW 16.1 mph25.9 kmh 29.68 in1005.1 mb - 0.00 in0.0 mm 0.00 in0.0 mm
06:20 PM 54.5°F12.5°C 44.9°F7.2°C 70% 15.0 mph WSW24.1 kmh WSW 18.4 mph29.6 kmh 29.68 in1005.1 mb - 0.00 in0.0 mm 0.00 in0.0 mm
06:25 PM 54.5°F12.5°C 44.9°F7.2°C 70% 9.2 mph WSW14.8 kmh WSW 16.1 mph25.9 kmh 29.68 in1005.1 mb - 0.00 in0.0 mm 0.00 in0.0 mm
06:30 PM 54.7°F12.6°C 45.5°F7.5°C 71% 15.0 mph WSW24.1 kmh WSW 20.7 mph33.3 kmh 29.68 in1005.1 mb - 0.00 in0.0 mm 0.00 in0.0 mm
06:35 PM 54.7°F12.6°C 45.5°F7.5°C 71% 10.4 mph WSW16.7 kmh WSW 17.3 mph27.8 kmh 29.68 in1005.1 mb - 0.00 in0.0 mm 0.00 in0.0 mm
06:40 PM 54.9°F12.7°C 45.6°F7.6°C 71% 10.4 mph SW16.7 kmh SW 17.3 mph27.8 kmh 29.68 in1005.1 mb - 0.00 in0.0 mm 0.00 in0.0 mm
06:45 PM 54.9°F12.7°C 45.6°F7.6°C 71% 11.5 mph WSW18.5 kmh WSW 11.5 mph18.5 kmh 29.68 in1005.1 mb - 0.00 in0.0 mm 0.00 in0.0 mm
06:50 PM 55.0°F12.8°C 45.8°F7.7°C 71% 9.2 mph WSW14.8 kmh WSW 11.5 mph18.5 kmh 29.68 in1005.1 mb - 0.00 in0.0 mm 0.00 in0.0 mm
06:55 PM 55.0°F12.8°C 45.8°F7.7°C 71% 11.5 mph SW18.5 kmh SW 15.0 mph24.1 kmh 29.68 in1005.1 mb - 0.00 in0.0 mm 0.00 in0.0 mm
07:00 PM 55.2°F12.9°C 46.0°F7.8°C 71% 12.7 mph WSW20.4 kmh WSW 24.2 mph38.9 kmh 29.68 in1005.1 mb - 0.00 in0.0 mm 0.00 in0.0 mm
07:10 PM 55.4°F13.0°C 46.2°F7.9°C 71% 10.4 mph WSW16.7 kmh WSW 18.4 mph29.6 kmh 29.68 in1005.1 mb - 0.00 in0.0 mm 0.00 in0.0 mm
07:15 PM 55.6°F13.1°C 46.3°F7.9°C 71% 16.1 mph WSW25.9 kmh WSW 23.0 mph37.0 kmh 29.68 in1005.1 mb - 0.00 in0.0 mm 0.00 in0.0 mm
07:20 PM 55.6°F13.1°C 46.3°F7.9°C 71% 13.8 mph SW22.2 kmh SW 19.6 mph31.5 kmh 29.68 in1005.1 mb - 0.00 in0.0 mm 0.00 in0.0 mm
07:25 PM 55.6°F13.1°C 46.3°F7.9°C 71% 11.5 mph W18.5 kmh W 13.8 mph22.2 kmh 29.68 in1005.1 mb - 0.00 in0.0 mm 0.00 in0.0 mm
07:30 PM 55.6°F13.1°C 46.3°F7.9°C 71% 11.5 mph S18.5 kmh S 13.8 mph22.2 kmh 29.68 in1005.1 mb - 0.00 in0.0 mm 0.00 in0.0 mm
07:35 PM 55.8°F13.2°C 46.5°F8.1°C 71% 13.8 mph SW22.2 kmh SW 28.8 mph46.3 kmh 29.68 in1005.1 mb - 0.00 in0.0 mm 0.00 in0.0 mm
07:40 PM 55.8°F13.2°C 46.5°F8.1°C 71% 11.5 mph WSW18.5 kmh WSW 18.4 mph29.6 kmh 29.68 in1005.1 mb - 0.00 in0.0 mm 0.00 in0.0 mm
07:45 PM 55.9°F13.3°C 46.7°F8.2°C 71% 11.5 mph SW18.5 kmh SW 13.8 mph22.2 kmh 29.68 in1005.1 mb - 0.00 in0.0 mm 0.00 in0.0 mm
07:50 PM 55.9°F13.3°C 46.7°F8.2°C 71% 9.2 mph WSW14.8 kmh WSW 11.5 mph18.5 kmh 29.68 in1005.1 mb - 0.00 in0.0 mm 0.00 in0.0 mm
07:55 PM 55.9°F13.3°C 46.7°F8.2°C 71% 11.5 mph W18.5 kmh W 15.0 mph24.1 kmh 29.68 in1005.1 mb - 0.00 in0.0 mm 0.00 in0.0 mm
08:00 PM 55.9°F13.3°C 46.7°F8.2°C 71% 10.4 mph SSW16.7 kmh SSW 13.8 mph22.2 kmh 29.68 in1005.1 mb - 0.00 in0.0 mm 0.00 in0.0 mm
08:10 PM 55.9°F13.3°C 46.7°F8.2°C 71% 10.4 mph SW16.7 kmh SW 21.9 mph35.2 kmh 29.68 in1005.1 mb - 0.00 in0.0 mm 0.00 in0.0 mm
08:15 PM 55.9°F13.3°C 46.7°F8.2°C 71% 11.5 mph SW18.5 kmh SW 17.3 mph27.8 kmh 29.68 in1005.1 mb - 0.00 in0.0 mm 0.00 in0.0 mm
08:20 PM 56.1°F13.4°C 46.8°F8.2°C 71% 12.7 mph SW20.4 kmh SW 18.4 mph29.6 kmh 29.68 in1005.1 mb - 0.00 in0.0 mm 0.00 in0.0 mm
08:25 PM 56.1°F13.4°C 46.8°F8.2°C 71% 11.5 mph SW18.5 kmh SW 17.3 mph27.8 kmh 29.68 in1005.1 mb - 0.00 in0.0 mm 0.00 in0.0 mm
08:30 PM 56.1°F13.4°C 46.8°F8.2°C 71% 10.4 mph SSW16.7 kmh SSW 13.8 mph22.2 kmh 29.68 in1005.1 mb - 0.00 in0.0 mm 0.00 in0.0 mm
08:35 PM 56.3°F13.5°C 47.0°F8.3°C 71% 11.5 mph WSW18.5 kmh WSW 17.3 mph27.8 kmh 29.68 in1005.1 mb - 0.00 in0.0 mm 0.00 in0.0 mm
08:40 PM 56.3°F13.5°C 47.0°F8.3°C 71% 10.4 mph WSW16.7 kmh WSW 20.7 mph33.3 kmh 29.68 in1005.1 mb - 0.00 in0.0 mm 0.00 in0.0 mm
08:45 PM 56.3°F13.5°C 47.0°F8.3°C 71% 13.8 mph SW22.2 kmh SW 16.1 mph25.9 kmh 29.68 in1005.1 mb - 0.00 in0.0 mm 0.00 in0.0 mm
08:50 PM 56.3°F13.5°C 47.0°F8.3°C 71% 9.2 mph SW14.8 kmh SW 12.7 mph20.4 kmh 29.68 in1005.1 mb - 0.00 in0.0 mm 0.00 in0.0 mm
08:55 PM 56.3°F13.5°C 47.0°F8.3°C 71% 11.5 mph SW18.5 kmh SW 17.3 mph27.8 kmh 29.68 in1005.1 mb - 0.00 in0.0 mm 0.00 in0.0 mm
09:00 PM 56.3°F13.5°C 47.0°F8.3°C 71% 11.5 mph WSW18.5 kmh WSW 12.7 mph20.4 kmh 29.68 in1005.1 mb - 0.00 in0.0 mm 0.00 in0.0 mm
09:10 PM 56.7°F13.7°C 47.0°F8.3°C 70% 13.8 mph SW22.2 kmh SW 19.6 mph31.5 kmh 29.68 in1005.1 mb - 0.00 in0.0 mm 0.00 in0.0 mm
09:15 PM 56.7°F13.7°C 47.0°F8.3°C 70% 10.4 mph WNW16.7 kmh WNW 12.7 mph20.4 kmh 29.68 in1005.1 mb - 0.00 in0.0 mm 0.00 in0.0 mm
09:20 PM 56.7°F13.7°C 47.0°F8.3°C 70% 9.2 mph WSW14.8 kmh WSW 16.1 mph25.9 kmh 29.68 in1005.1 mb - 0.00 in0.0 mm 0.00 in0.0 mm
09:25 PM 56.7°F13.7°C 46.6°F8.1°C 69% 9.2 mph SW14.8 kmh SW 12.7 mph20.4 kmh 29.68 in1005.1 mb - 0.00 in0.0 mm 0.00 in0.0 mm
09:30 PM 56.7°F13.7°C 46.6°F8.1°C 69% 10.4 mph WSW16.7 kmh WSW 24.2 mph38.9 kmh 29.68 in1005.1 mb - 0.00 in0.0 mm 0.00 in0.0 mm
09:35 PM 56.7°F13.7°C 46.6°F8.1°C 69% 15.0 mph WSW24.1 kmh WSW 18.4 mph29.6 kmh 29.68 in1005.1 mb - 0.00 in0.0 mm 0.00 in0.0 mm
09:40 PM 56.7°F13.7°C 46.6°F8.1°C 69% 9.2 mph W14.8 kmh W 11.5 mph18.5 kmh 29.68 in1005.1 mb - 0.00 in0.0 mm 0.00 in0.0 mm
09:45 PM 56.7°F13.7°C 46.6°F8.1°C 69% 12.7 mph WSW20.4 kmh WSW 18.4 mph29.6 kmh 29.68 in1005.1 mb - 0.00 in0.0 mm 0.00 in0.0 mm
09:50 PM 56.7°F13.7°C 46.6°F8.1°C 69% 11.5 mph WSW18.5 kmh WSW 16.1 mph25.9 kmh 29.68 in1005.1 mb - 0.00 in0.0 mm 0.00 in0.0 mm
09:55 PM 56.7°F13.7°C 46.6°F8.1°C 69% 10.4 mph WSW16.7 kmh WSW 13.8 mph22.2 kmh 29.65 in1004.1 mb - 0.00 in0.0 mm 0.00 in0.0 mm
10:00 PM 56.7°F13.7°C 46.6°F8.1°C 69% 12.7 mph WSW20.4 kmh WSW 13.8 mph22.2 kmh 29.65 in1004.1 mb - 0.00 in0.0 mm 0.00 in0.0 mm
10:10 PM 56.7°F13.7°C 46.6°F8.1°C 69% 13.8 mph WSW22.2 kmh WSW 20.7 mph33.3 kmh 29.68 in1005.1 mb - 0.00 in0.0 mm 0.00 in0.0 mm
10:15 PM 56.7°F13.7°C 46.6°F8.1°C 69% 16.1 mph WSW25.9 kmh WSW 20.7 mph33.3 kmh 29.68 in1005.1 mb - 0.00 in0.0 mm 0.00 in0.0 mm
10:20 PM 56.7°F13.7°C 46.6°F8.1°C 69% 11.5 mph WSW18.5 kmh WSW 16.1 mph25.9 kmh 29.68 in1005.1 mb - 0.00 in0.0 mm 0.00 in0.0 mm
10:25 PM 56.5°F13.6°C 46.4°F8.0°C 69% 11.5 mph SSW18.5 kmh SSW 16.1 mph25.9 kmh 29.68 in1005.1 mb - 0.00 in0.0 mm 0.00 in0.0 mm
10:30 PM 56.7°F13.7°C 46.6°F8.1°C 69% 11.5 mph WSW18.5 kmh WSW 13.8 mph22.2 kmh 29.68 in1005.1 mb - 0.00 in0.0 mm 0.00 in0.0 mm
10:35 PM 56.5°F13.6°C 46.4°F8.0°C 69% 10.4 mph SSW16.7 kmh SSW 13.8 mph22.2 kmh 29.68 in1005.1 mb - 0.00 in0.0 mm 0.00 in0.0 mm
10:40 PM 56.5°F13.6°C 46.4°F8.0°C 69% 11.5 mph SW18.5 kmh SW 16.1 mph25.9 kmh 29.68 in1005.1 mb - 0.00 in0.0 mm 0.00 in0.0 mm
10:45 PM 56.6°F13.7°C 46.6°F8.1°C 69% 16.1 mph W25.9 kmh W 23.0 mph37.0 kmh 29.68 in1005.1 mb - 0.00 in0.0 mm 0.00 in0.0 mm
10:50 PM 56.7°F13.7°C 46.6°F8.1°C 69% 10.4 mph SW16.7 kmh SW 17.3 mph27.8 kmh 29.68 in1005.1 mb - 0.00 in0.0 mm 0.00 in0.0 mm
10:55 PM 56.5°F13.6°C 46.8°F8.2°C 70% 9.2 mph SW14.8 kmh SW 11.5 mph18.5 kmh 29.68 in1005.1 mb - 0.00 in0.0 mm 0.00 in0.0 mm
11:00 PM 56.5°F13.6°C 46.8°F8.2°C 70% 11.5 mph WSW18.5 kmh WSW 13.8 mph22.2 kmh 29.68 in1005.1 mb - 0.00 in0.0 mm 0.00 in0.0 mm
11:10 PM 56.7°F13.7°C 47.0°F8.3°C 70% 11.5 mph SW18.5 kmh SW 17.3 mph27.8 kmh 29.68 in1005.1 mb - 0.00 in0.0 mm 0.00 in0.0 mm
11:15 PM 56.7°F13.7°C 47.0°F8.3°C 70% 8.1 mph WSW13.0 kmh WSW 15.0 mph24.1 kmh 29.68 in1005.1 mb - 0.00 in0.0 mm 0.00 in0.0 mm
11:20 PM 56.7°F13.7°C 47.0°F8.3°C 70% 9.2 mph SSW14.8 kmh SSW 13.8 mph22.2 kmh 29.68 in1005.1 mb - 0.00 in0.0 mm 0.00 in0.0 mm
11:25 PM 56.7°F13.7°C 47.0°F8.3°C 70% 9.2 mph SW14.8 kmh SW 13.8 mph22.2 kmh 29.68 in1005.1 mb - 0.00 in0.0 mm 0.00 in0.0 mm
11:30 PM 56.7°F13.7°C 46.6°F8.1°C 69% 9.2 mph WSW14.8 kmh WSW 12.7 mph20.4 kmh 29.68 in1005.1 mb - 0.00 in0.0 mm 0.00 in0.0 mm
11:35 PM 56.7°F13.7°C 46.6°F8.1°C 69% 9.2 mph WSW14.8 kmh WSW 15.0 mph24.1 kmh 29.68 in1005.1 mb - 0.00 in0.0 mm 0.00 in0.0 mm
11:40 PM 56.7°F13.7°C 46.6°F8.1°C 69% 11.5 mph W18.5 kmh W 13.8 mph22.2 kmh 29.68 in1005.1 mb - 0.00 in0.0 mm 0.00 in0.0 mm
11:45 PM 56.8°F13.8°C 46.7°F8.2°C 69% 10.4 mph SSW16.7 kmh SSW 15.0 mph24.1 kmh 29.68 in1005.1 mb - 0.00 in0.0 mm 0.00 in0.0 mm
11:50 PM 56.8°F13.8°C 46.8°F8.2°C 69% 11.5 mph WSW18.5 kmh WSW 18.4 mph29.6 kmh 29.68 in1005.1 mb - 0.00 in0.0 mm 0.00 in0.0 mm
11:55 PM 56.8°F13.8°C 46.8°F8.2°C 69% 11.5 mph SW18.5 kmh SW 19.6 mph31.5 kmh 29.68 in1005.1 mb - 0.00 in0.0 mm 0.00 in0.0 mm